KMEV/MEV METAR and TAF weather

Enter ICAO airport designator
Station Type Date Time Source
KMEV METAR 2022/08/12 14:55 UTC NOAA

KMEV 121455Z AUTO 00000KT 10SM CLR 17/06 A3019 RMK AO2


Station Type Date Time Source
KMEV Decoded METAR 2022/08/12 14:55 UTC NOAA

Station name not available
Aug 12, 2022 - 10:55 AM EDT / 2022.08.12 1455 UTC
Wind: Calm:0
Visibility: 10 mile(s):0
Sky conditions: clear
Temperature: 62 F (17 C)
Dew Point: 42 F (6 C)
Relative Humidity: 48%
Pressure (altimeter): 30.19 in. Hg (1022 hPa)
ob: KMEV 121455Z AUTO 00000KT 10SM CLR 17/06 A3019 RMK AO2
cycle: 15

Station Type Date Time Source
KMEV TAF 2022/08/12 12:21 UTC NOAA

TAF KMEV 121120Z 1212/1312 VRB05KT P6SM FEW110
FM122000 28012G22KT P6SM SKC
FM130400 12006KT P6SM SKC

Example: see airport list